Lake Lynn, PA

11:22 AM EDT on September 02, 2015 (GMT -0400)
HADS | | Change Station
CLOSE
Current Station
Personal Weather Station
Location: Gans, PA
Elevation: 898 ft
Nearby Weather Stations

Elev 898 ft 39.72 °N, 79.86 °W | Updated 2 hours ago

Overcast
Overcast
77.0 °F
Feels Like 77.0 °F
N
0.0
Wind Variable Wind from North
Gusts 0.0 mph

Today
High -- | Low -- °F
--% Chance of Precip.
Yesterday
High -- | Low -- °F
Precip. -- in
6:48 AM 7:49 PM
Waning Gibbous, 79% visible
Pressure 30.13 in
Visibility 10.0 miles
Clouds Few 3700 ft
Overcast 11000 ft
Dew Point Not available.
Humidity Not available.
Rainfall in
Snow Depth Not available.
UV 2 out of 12
Pollen 10.00 out of 12
Air Quality Not available.
Flu Activity Not available.
METAR KMGW 021453Z 17005KT 10SM FEW037 OVC110 23/18 A3016 RMK AO2 SLP202 T02280178 53002
Pressure 30.13 in
Visibility 10.0 miles
Clouds Few 3700 ft
Overcast 11000 ft
Dew Point Not available.
Humidity Not available.
Rainfall in
Snow Depth Not available.
UV 2 out of 12
Pollen 10.00 out of 12
Air Quality Not available.
Flu Activity Not available.
METAR KMGW 021453Z 17005KT 10SM FEW037 OVC110 23/18 A3016 RMK AO2 SLP202 T02280178 53002

10-Day Weather Forecast

×

Almanac

Astronomy

Sep. 02, 2015 Rise Set
Actual Time
Civil Twilight
Nautical Twilight
Astronomical Twilight
Moon
Length of Visible Light
Length of Day
Tomorrow will be .
, % of the Moon is Illuminated

Today's Extremes

State Highs State Lows

Community

WunderPhotos

Upload Photos

1,851,770 photos uploaded!

WunderBlogs® & News

Nearby

Air Quality

  Air Quality AQ Index Pollutant
Not available.

Snow Depth

Station Depth Elevation

Earthquake Activity

City Distance Mag. Time & Date
Minimum magnitude displayed is 2.5.

Coastal Water Temperatures

Place Temperature

Stations

Nearby Weather Stations

Station Location Temp. Windchill Dew Point Humidity Wind Precip. Elev Updated Type